Time;durP1;ratioP1;P1;durP2;ratioP2;P2;SDS_P1;SDS_P2;PMS_P1;PMS_P2;Temp;Humidity;BMP_temperature;BMP_pressure;BME280_temperature;BME280_humidity;BME280_pressure;Samples;Min_cycle;Max_cycle;Signal;HPM_P1;HPM_P2
2022/05/13 00:01:20;;;;;;;4.10;2.43;;;;;;;;;;5053858;28;20522;-76
2022/05/13 00:03:46;;;;;;;6.73;3.47;;;;;;;;;;5053616;28;20429;-76
2022/05/13 00:06:12;;;;;;;5.60;3.03;;;;;;;;;;5053781;28;20412;-77
2022/05/13 00:08:38;;;;;;;5.47;3.10;;;;;;;;;;5053903;28;20400;-75
2022/05/13 00:11:05;;;;;;;7.40;2.67;;;;;;;;;;5053772;28;20440;-77
2022/05/13 00:13:31;;;;;;;11.87;3.20;;;;;;;;;;5053369;28;20409;-76
2022/05/13 00:15:58;;;;;;;5.97;3.00;;;;;;;;;;5053520;28;20814;-77
2022/05/13 00:18:24;;;;;;;10.03;3.07;;;;;;;;;;5035672;28;20443;-77
2022/05/13 00:20:50;;;;;;;6.60;3.10;;;;;;;;;;5035723;28;20457;-76
2022/05/13 00:23:16;;;;;;;6.70;3.07;;;;;;;;;;5053170;28;20495;-78
2022/05/13 00:25:42;;;;;;;5.83;2.30;;;;;;;;;;5053370;28;20420;-75
2022/05/13 00:28:09;;;;;;;5.33;3.57;;;;;;;;;;5053209;28;20787;-75
2022/05/13 00:30:37;;;;;;;9.57;3.30;;;;;;;;;;5053263;28;20408;-76
2022/05/13 00:33:04;;;;;;;8.90;3.27;;;;;;;;;;5053035;28;20419;-76
2022/05/13 00:35:30;;;;;;;4.83;2.43;;;;;;;;;;5052482;28;20440;-76
2022/05/13 00:37:56;;;;;;;12.63;3.93;;;;;;;;;;5051675;28;20419;-76
2022/05/13 00:40:22;;;;;;;8.13;3.08;;;;;;;;;;5053146;28;20413;-76
2022/05/13 00:42:49;;;;;;;9.40;3.17;;;;;;;;;;5052870;28;20209;-76
2022/05/13 00:45:15;;;;;;;4.03;3.00;;;;;;;;;;5034990;28;20424;-76
2022/05/13 00:47:42;;;;;;;5.53;3.20;;;;;;;;;;5053097;28;20811;-75
2022/05/13 00:50:09;;;;;;;3.45;2.67;;;;;;;;;;5053166;28;20404;-76
2022/05/13 00:52:36;;;;;;;10.98;3.45;;;;;;;;;;5053109;28;20177;-76
2022/05/13 00:55:06;;;;;;;3.22;2.50;;;;;;;;;;5052696;28;20205;-75
2022/05/13 00:57:35;;;;;;;6.23;2.40;;;;;;;;;;5053104;28;20243;-76
2022/05/13 01:00:02;;;;;;;10.57;3.53;;;;;;;;;;5052898;28;20897;-76
2022/05/13 01:02:30;;;;;;;5.40;2.90;;;;;;;;;;5052831;28;20484;-76
2022/05/13 01:04:56;;;;;;;6.20;2.87;;;;;;;;;;5052611;28;20535;-76
2022/05/13 01:07:22;;;;;;;3.75;2.53;;;;;;;;;;5053137;28;20448;-76
2022/05/13 01:09:55;;;;;;;7.00;3.10;;;;;;;;;;5052879;28;20227;-76
2022/05/13 01:12:23;;;;;;;5.17;3.50;;;;;;;;;;5052632;28;20452;-76
2022/05/13 01:14:57;;;;;;;5.05;2.85;;;;;;;;;;5052355;28;20424;-75
2022/05/13 01:20:16;;;;;;;6.63;2.70;;;;;;;;;;5052879;28;20181;-75
2022/05/13 01:22:45;;;;;;;6.78;3.63;;;;;;;;;;5052633;28;20201;-76
2022/05/13 01:25:13;;;;;;;6.57;3.45;;;;;;;;;;5052268;28;20194;-77
2022/05/13 01:27:40;;;;;;;7.70;3.73;;;;;;;;;;5052448;28;20221;-75
2022/05/13 01:30:06;;;;;;;4.68;2.92;;;;;;;;;;5052429;28;20432;-75
2022/05/13 01:32:33;;;;;;;5.25;3.25;;;;;;;;;;5052398;28;20293;-77
2022/05/13 01:34:59;;;;;;;10.93;3.90;;;;;;;;;;5052026;28;20236;-76
2022/05/13 01:37:26;;;;;;;6.40;3.43;;;;;;;;;;5052581;28;20865;-76
2022/05/13 01:39:52;;;;;;;10.88;3.70;;;;;;;;;;5052488;28;20440;-75
2022/05/13 01:42:18;;;;;;;8.70;3.17;;;;;;;;;;5052365;28;20225;-76
2022/05/13 01:44:44;;;;;;;6.83;3.33;;;;;;;;;;5051885;28;20429;-76
2022/05/13 01:47:10;;;;;;;4.40;3.30;;;;;;;;;;5055987;28;20934;-77
2022/05/13 01:49:36;;;;;;;7.07;2.90;;;;;;;;;;5056479;28;20509;-76
2022/05/13 01:52:02;;;;;;;8.43;3.30;;;;;;;;;;5038595;28;20425;-76
2022/05/13 01:54:28;;;;;;;7.20;3.40;;;;;;;;;;5055756;28;20467;-77
2022/05/13 01:56:54;;;;;;;4.50;3.30;;;;;;;;;;5056450;28;20510;-76
2022/05/13 01:59:20;;;;;;;6.10;3.10;;;;;;;;;;5056455;28;20470;-76
2022/05/13 02:01:45;;;;;;;4.30;2.87;;;;;;;;;;5056194;28;20471;-76
2022/05/13 02:04:11;;;;;;;8.30;3.40;;;;;;;;;;5056030;28;20500;-76
2022/05/13 02:06:37;;;;;;;6.03;3.67;;;;;;;;;;5056361;28;20412;-76
2022/05/13 02:09:03;;;;;;;10.50;3.67;;;;;;;;;;5056202;28;20412;-77
2022/05/13 02:11:36;;;;;;;8.20;3.40;;;;;;;;;;5056015;28;20412;-77
2022/05/13 02:14:04;;;;;;;5.47;3.50;;;;;;;;;;5055689;28;20442;-76
2022/05/13 02:16:30;;;;;;;7.90;3.42;;;;;;;;;;5056084;28;20184;-76
2022/05/13 02:18:56;;;;;;;5.35;3.38;;;;;;;;;;5055868;28;20182;-76
2022/05/13 02:21:22;;;;;;;4.30;3.00;;;;;;;;;;5055816;28;20220;-76
2022/05/13 02:23:48;;;;;;;7.35;3.35;;;;;;;;;;5055423;28;20439;-76
2022/05/13 02:26:16;;;;;;;4.63;3.10;;;;;;;;;;5037883;28;20548;-76
2022/05/13 02:28:42;;;;;;;5.35;3.00;;;;;;;;;;5055658;28;20182;-75
2022/05/13 02:31:08;;;;;;;6.90;3.10;;;;;;;;;;5055440;28;20193;-76
2022/05/13 02:33:35;;;;;;;7.47;3.05;;;;;;;;;;5055037;28;20413;-75
2022/05/13 02:36:02;;;;;;;4.68;2.20;;;;;;;;;;5037498;28;20187;-76
2022/05/13 02:38:28;;;;;;;7.50;2.47;;;;;;;;;;5055518;28;20174;-76
2022/05/13 02:41:14;;;;;;;3.55;2.47;;;;;;;;;;5055540;28;20201;-76
2022/05/13 02:43:50;;;;;;;6.07;2.20;;;;;;;;;;5055430;28;20206;-76
2022/05/13 02:46:19;;;;;;;4.03;2.20;;;;;;;;;;5055448;28;20174;-75
2022/05/13 02:48:46;;;;;;;9.80;3.95;;;;;;;;;;5055251;28;20245;-76
2022/05/13 02:51:12;;;;;;;5.70;2.35;;;;;;;;;;5055411;28;20224;-77
2022/05/13 02:53:38;;;;;;;8.95;2.38;;;;;;;;;;5055034;28;20213;-76
2022/05/13 02:56:06;;;;;;;5.40;2.10;;;;;;;;;;5055436;28;20224;-76
2022/05/13 02:58:32;;;;;;;3.50;2.03;;;;;;;;;;5054234;28;20186;-76
2022/05/13 03:00:58;;;;;;;6.60;3.00;;;;;;;;;;5055260;28;20209;-75
2022/05/13 03:03:24;;;;;;;4.23;1.80;;;;;;;;;;5054617;28;20408;-75
2022/05/13 03:05:50;;;;;;;5.90;1.70;;;;;;;;;;5055155;28;20408;-76
2022/05/13 03:08:16;;;;;;;5.07;1.87;;;;;;;;;;5037535;28;20501;-75
2022/05/13 03:10:42;;;;;;;6.13;2.33;;;;;;;;;;5055048;28;20881;-76
2022/05/13 03:13:09;;;;;;;5.55;2.00;;;;;;;;;;5054826;28;20440;-76
2022/05/13 03:15:35;;;;;;;4.88;1.80;;;;;;;;;;5054830;28;20654;-76
2022/05/13 03:18:01;;;;;;;8.88;2.45;;;;;;;;;;5054939;28;20182;-77
2022/05/13 03:20:27;;;;;;;2.70;1.98;;;;;;;;;;5054869;28;20295;-75
2022/05/13 03:22:53;;;;;;;6.22;2.03;;;;;;;;;;5054489;28;20296;-76
2022/05/13 03:25:20;;;;;;;6.45;2.42;;;;;;;;;;5054737;28;20193;-77
2022/05/13 03:27:46;;;;;;;4.25;1.90;;;;;;;;;;5036806;28;20647;-76
2022/05/13 03:30:13;;;;;;;6.25;2.15;;;;;;;;;;5051693;28;20727;-77
2022/05/13 03:32:39;;;;;;;8.10;2.67;;;;;;;;;;5054658;28;20537;-76
2022/05/13 03:35:07;;;;;;;4.32;2.00;;;;;;;;;;5054091;28;20213;-75
2022/05/13 03:37:33;;;;;;;6.38;2.53;;;;;;;;;;5054395;28;20174;-76
2022/05/13 03:39:59;;;;;;;5.50;2.37;;;;;;;;;;5054423;28;20186;-76
2022/05/13 03:42:25;;;;;;;4.53;2.22;;;;;;;;;;5054405;28;20468;-75
2022/05/13 03:44:51;;;;;;;4.60;1.92;;;;;;;;;;5054128;28;20269;-77
2022/05/13 03:47:18;;;;;;;6.10;1.85;;;;;;;;;;5054743;28;20174;-76
2022/05/13 03:49:44;;;;;;;7.82;2.60;;;;;;;;;;5054209;28;20266;-76
2022/05/13 03:52:10;;;;;;;4.27;2.93;;;;;;;;;;5054249;28;20185;-75
2022/05/13 03:54:38;;;;;;;5.15;2.13;;;;;;;;;;5053666;28;20428;-76
2022/05/13 03:57:04;;;;;;;6.38;2.20;;;;;;;;;;5054118;28;20170;-75
2022/05/13 03:59:30;;;;;;;14.52;3.35;;;;;;;;;;5054295;28;20247;-76
2022/05/13 04:01:56;;;;;;;4.20;2.07;;;;;;;;;;5054048;28;20213;-76
2022/05/13 04:04:22;;;;;;;10.23;3.00;;;;;;;;;;5053618;28;20929;-76
2022/05/13 04:09:35;;;;;;;6.50;2.30;;;;;;;;;;5054150;28;20515;-76
2022/05/13 04:17:30;;;;;;;7.15;2.15;;;;;;;;;;5053895;28;20184;-76
2022/05/13 04:19:56;;;;;;;5.90;2.37;;;;;;;;;;5053593;28;20194;-76
2022/05/13 04:22:24;;;;;;;6.07;2.80;;;;;;;;;;5053659;28;20513;-76
2022/05/13 04:24:52;;;;;;;7.20;2.30;;;;;;;;;;5051955;28;20797;-75
2022/05/13 04:27:18;;;;;;;4.80;2.10;;;;;;;;;;5053550;28;20273;-76
2022/05/13 04:29:44;;;;;;;3.03;2.00;;;;;;;;;;5053405;28;20472;-75
2022/05/13 04:32:10;;;;;;;7.27;2.90;;;;;;;;;;5053260;28;20474;-77
2022/05/13 04:34:36;;;;;;;5.77;2.60;;;;;;;;;;5053022;28;20444;-76
2022/05/13 04:37:02;;;;;;;4.97;2.30;;;;;;;;;;5053405;28;20416;-75
2022/05/13 04:39:28;;;;;;;6.30;2.20;;;;;;;;;;5053544;28;20503;-78
2022/05/13 04:44:39;;;;;;;9.73;2.60;;;;;;;;;;5053191;28;20771;-76
2022/05/13 04:48:15;;;;;;;5.60;2.63;;;;;;;;;;5053261;28;20177;-77
2022/05/13 04:49:51;;;;;;;9.48;2.35;;;;;;;;;;5053036;28;20319;-76
2022/05/13 04:52:17;;;;;;;6.80;2.30;;;;;;;;;;5053151;28;20513;-76
2022/05/13 04:54:44;;;;;;;7.43;2.47;;;;;;;;;;5052621;28;20432;-76
2022/05/13 04:57:10;;;;;;;9.63;2.47;;;;;;;;;;5053008;28;20413;-76
2022/05/13 04:59:36;;;;;;;3.53;2.30;;;;;;;;;;5053032;28;20679;-77
2022/05/13 05:02:02;;;;;;;10.10;2.63;;;;;;;;;;5035256;28;20827;-78
2022/05/13 05:04:28;;;;;;;6.67;3.20;;;;;;;;;;5052323;28;20430;-77
2022/05/13 05:06:55;;;;;;;6.53;2.77;;;;;;;;;;5052970;28;20415;-76
2022/05/13 05:09:21;;;;;;;4.83;2.57;;;;;;;;;;5052729;28;20409;-77
2022/05/13 05:11:47;;;;;;;12.73;2.80;;;;;;;;;;5052758;28;20460;-77
2022/05/13 05:14:13;;;;;;;9.30;2.30;;;;;;;;;;5052489;28;20436;-77
2022/05/13 05:16:39;;;;;;;10.10;2.60;;;;;;;;;;5052815;28;20413;-76
2022/05/13 05:19:06;;;;;;;9.97;2.97;;;;;;;;;;5035244;28;20181;-76
2022/05/13 05:21:32;;;;;;;7.20;2.77;;;;;;;;;;5033821;28;20925;-76
2022/05/13 05:23:58;;;;;;;5.57;2.33;;;;;;;;;;5052322;28;20464;-76
2022/05/13 05:26:24;;;;;;;5.77;3.23;;;;;;;;;;5034763;28;20542;-77
2022/05/13 05:28:51;;;;;;;11.20;3.07;;;;;;;;;;5052450;28;20436;-76
2022/05/13 05:31:17;;;;;;;10.10;2.77;;;;;;;;;;5052652;28;20421;-76
2022/05/13 05:33:43;;;;;;;7.80;2.30;;;;;;;;;;5052058;28;20462;-77
2022/05/13 05:36:09;;;;;;;7.93;2.33;;;;;;;;;;5052565;28;20439;-77
2022/05/13 05:38:35;;;;;;;8.93;2.33;;;;;;;;;;5052319;28;20411;-77
2022/05/13 05:41:02;;;;;;;22.03;4.30;;;;;;;;;;5052566;28;20472;-77
2022/05/13 05:43:28;;;;;;;16.37;2.70;;;;;;;;;;5052083;28;20492;-76
2022/05/13 05:45:55;;;;;;;10.30;2.70;;;;;;;;;;5034784;28;20417;-77
2022/05/13 05:48:22;;;;;;;7.73;2.73;;;;;;;;;;5052385;28;20471;-76
2022/05/13 05:50:48;;;;;;;5.37;2.50;;;;;;;;;;5052305;28;20404;-76
2022/05/13 05:53:14;;;;;;;14.10;2.50;;;;;;;;;;5052146;28;20426;-77
2022/05/13 05:58:25;;;;;;;5.73;1.93;;;;;;;;;;5052827;28;20903;-77
2022/05/13 06:00:51;;;;;;;9.90;2.47;;;;;;;;;;5034583;28;20405;-77
2022/05/13 06:03:18;;;;;;;10.97;3.20;;;;;;;;;;5034478;28;20749;-78
2022/05/13 06:05:45;;;;;;;7.83;2.40;;;;;;;;;;5052552;28;20430;-77
2022/05/13 06:08:11;;;;;;;13.90;2.80;;;;;;;;;;5052694;28;20419;-77
2022/05/13 06:10:37;;;;;;;10.73;2.87;;;;;;;;;;5052737;28;20400;-77
2022/05/13 06:13:07;;;;;;;5.90;2.20;;;;;;;;;;5052135;28;20746;-76
2022/05/13 06:15:33;;;;;;;6.10;2.70;;;;;;;;;;5052079;28;20436;-77
2022/05/13 06:17:59;;;;;;;10.87;2.70;;;;;;;;;;5052370;28;20404;-76
2022/05/13 06:20:30;;;;;;;14.00;3.00;;;;;;;;;;5052283;28;20409;-76
2022/05/13 06:22:56;;;;;;;11.20;3.07;;;;;;;;;;5051720;28;20468;-77
2022/05/13 06:25:23;;;;;;;16.87;2.80;;;;;;;;;;5052218;28;20443;-77
2022/05/13 06:27:50;;;;;;;8.63;2.60;;;;;;;;;;5051922;28;20396;-78
2022/05/13 06:30:18;;;;;;;8.53;2.03;;;;;;;;;;5052276;28;20197;-77
2022/05/13 06:32:44;;;;;;;8.57;3.33;;;;;;;;;;5036504;28;20477;-81
2022/05/13 06:35:10;;;;;;;6.63;1.93;;;;;;;;;;5055218;28;20475;-75
2022/05/13 06:37:36;;;;;;;11.50;2.60;;;;;;;;;;5055658;28;20416;-77
2022/05/13 06:40:03;;;;;;;8.03;2.30;;;;;;;;;;5055577;28;20412;-76
2022/05/13 06:42:29;;;;;;;12.37;3.10;;;;;;;;;;5055507;28;20555;-76
2022/05/13 06:44:55;;;;;;;10.63;2.40;;;;;;;;;;5055163;28;20796;-77
2022/05/13 06:47:21;;;;;;;12.07;2.50;;;;;;;;;;5055278;28;20404;-78
2022/05/13 06:49:47;;;;;;;5.37;2.43;;;;;;;;;;5037792;28;20845;-76
2022/05/13 06:52:13;;;;;;;6.73;2.00;;;;;;;;;;5055541;28;20408;-77
2022/05/13 06:54:43;;;;;;;9.70;2.10;;;;;;;;;;5055025;28;20440;-77
2022/05/13 06:57:10;;;;;;;8.83;1.90;;;;;;;;;;5055471;28;20423;-76
2022/05/13 06:59:36;;;;;;;7.17;2.17;;;;;;;;;;5055547;28;20405;-77
2022/05/13 07:02:02;;;;;;;12.00;2.27;;;;;;;;;;5055307;28;20474;-78
2022/05/13 07:04:28;;;;;;;14.43;2.27;;;;;;;;;;5054895;28;20416;-76
2022/05/13 07:06:54;;;;;;;11.80;2.47;;;;;;;;;;5055222;28;20904;-77
2022/05/13 07:09:20;;;;;;;6.40;2.43;;;;;;;;;;5054908;28;20494;-76
2022/05/13 07:11:46;;;;;;;7.67;1.70;;;;;;;;;;5037127;28;20417;-76
2022/05/13 07:14:12;;;;;;;12.03;2.53;;;;;;;;;;5054513;28;20804;-77
2022/05/13 07:16:38;;;;;;;11.93;3.80;;;;;;;;;;5054877;28;20387;-77
2022/05/13 07:19:05;;;;;;;7.40;2.17;;;;;;;;;;5054923;28;20412;-77
2022/05/13 07:21:31;;;;;;;7.47;1.70;;;;;;;;;;5054721;28;20776;-76
2022/05/13 07:23:57;;;;;;;3.30;1.27;;;;;;;;;;5054212;28;20431;-76
2022/05/13 07:26:23;;;;;;;14.43;2.07;;;;;;;;;;5036897;28;20771;-76
2022/05/13 07:28:49;;;;;;;3.80;1.60;;;;;;;;;;5054645;28;20406;-75
2022/05/13 07:31:15;;;;;;;8.10;1.83;;;;;;;;;;5037291;28;20896;-77
2022/05/13 07:33:41;;;;;;;7.50;2.00;;;;;;;;;;5054122;28;20487;-76
2022/05/13 07:36:07;;;;;;;2.43;1.57;;;;;;;;;;5054783;28;20499;-76
2022/05/13 07:38:34;;;;;;;7.40;2.10;;;;;;;;;;5054587;28;20420;-77
2022/05/13 07:41:19;;;;;;;4.53;1.70;;;;;;;;;;5054496;28;20531;-76
2022/05/13 07:43:45;;;;;;;8.63;1.73;;;;;;;;;;5053439;28;20448;-76
2022/05/13 07:46:12;;;;;;;5.27;1.80;;;;;;;;;;5054524;28;20495;-75
2022/05/13 07:48:39;;;;;;;3.93;2.10;;;;;;;;;;5054455;28;20495;-75
2022/05/13 07:51:05;;;;;;;3.07;1.83;;;;;;;;;;5054267;28;20427;-75
2022/05/13 07:53:31;;;;;;;11.23;2.10;;;;;;;;;;5053904;28;20445;-75
2022/05/13 07:55:58;;;;;;;4.57;1.87;;;;;;;;;;5054564;28;20420;-75
2022/05/13 07:58:24;;;;;;;3.80;2.53;;;;;;;;;;5054329;28;20391;-76
2022/05/13 08:00:50;;;;;;;7.43;2.23;;;;;;;;;;5054194;28;20413;-75
2022/05/13 08:03:17;;;;;;;9.20;2.13;;;;;;;;;;5053364;28;20413;-75
2022/05/13 08:05:44;;;;;;;8.83;2.87;;;;;;;;;;5053840;28;20469;-75
2022/05/13 08:08:18;;;;;;;7.00;2.03;;;;;;;;;;5051066;28;20823;-74
2022/05/13 08:10:46;;;;;;;9.60;2.53;;;;;;;;;;5054125;28;20385;-76
2022/05/13 08:13:12;;;;;;;17.60;2.40;;;;;;;;;;5052289;28;20407;-76
2022/05/13 08:15:38;;;;;;;13.33;2.20;;;;;;;;;;5052312;28;20858;-76
2022/05/13 08:18:04;;;;;;;3.27;1.23;;;;;;;;;;5053789;28;20449;-77
2022/05/13 08:20:31;;;;;;;8.53;2.20;;;;;;;;;;5053990;28;20387;-77
2022/05/13 08:22:57;;;;;;;6.33;1.67;;;;;;;;;;5053491;28;20467;-76
2022/05/13 08:25:23;;;;;;;4.20;1.87;;;;;;;;;;5053417;28;20407;-75
2022/05/13 08:27:49;;;;;;;3.80;1.60;;;;;;;;;;5053513;28;20803;-75
2022/05/13 08:30:15;;;;;;;6.90;1.87;;;;;;;;;;5053606;28;20411;-75
2022/05/13 08:32:41;;;;;;;5.03;1.80;;;;;;;;;;5053699;28;20944;-74
2022/05/13 08:35:08;;;;;;;3.17;1.40;;;;;;;;;;5053152;28;20518;-75
2022/05/13 08:37:39;;;;;;;5.27;2.10;;;;;;;;;;5053523;28;20412;-77
2022/05/13 08:40:05;;;;;;;5.13;1.70;;;;;;;;;;5053295;28;20466;-75
2022/05/13 08:42:37;;;;;;;6.10;1.90;;;;;;;;;;5053240;28;20492;-76
2022/05/13 08:45:04;;;;;;;9.37;2.20;;;;;;;;;;5052891;28;20947;-75
2022/05/13 08:47:39;;;;;;;3.67;1.57;;;;;;;;;;5053163;28;20892;-75
2022/05/13 08:50:09;;;;;;;3.90;1.40;;;;;;;;;;5051855;28;20799;-77
2022/05/13 08:55:23;;;;;;;3.47;1.37;;;;;;;;;;5052404;28;20448;-75
2022/05/13 08:57:50;;;;;;;5.93;1.30;;;;;;;;;;5053397;28;20378;-76
2022/05/13 09:00:36;;;;;;;4.33;1.40;;;;;;;;;;5052997;28;20412;-75
2022/05/13 09:03:11;;;;;;;2.73;1.40;;;;;;;;;;5052594;28;20434;-75
2022/05/13 09:05:41;;;;;;;4.57;1.60;;;;;;;;;;5053102;28;20435;-75
2022/05/13 09:08:07;;;;;;;7.57;2.00;;;;;;;;;;5053075;28;20789;-75
2022/05/13 09:10:37;;;;;;;4.00;1.77;;;;;;;;;;5053035;28;20412;-75
2022/05/13 09:13:03;;;;;;;6.73;1.87;;;;;;;;;;5052600;28;20411;-75
2022/05/13 09:15:41;;;;;;;5.50;1.80;;;;;;;;;;5052949;28;20414;-75
2022/05/13 09:18:20;;;;;;;4.70;1.77;;;;;;;;;;5052839;28;20915;-76
2022/05/13 09:20:50;;;;;;;4.10;1.10;;;;;;;;;;5051634;28;20960;-74
2022/05/13 09:23:17;;;;;;;3.03;1.30;;;;;;;;;;5052537;28;20503;-74
2022/05/13 09:25:43;;;;;;;4.87;1.50;;;;;;;;;;5052885;28;20405;-76
2022/05/13 09:28:12;;;;;;;5.13;1.30;;;;;;;;;;5052543;28;20407;-74
2022/05/13 09:30:39;;;;;;;6.03;1.60;;;;;;;;;;5052792;28;20433;-75
2022/05/13 09:33:19;;;;;;;4.37;1.73;;;;;;;;;;5052313;28;20499;-75
2022/05/13 09:35:45;;;;;;;8.47;1.80;;;;;;;;;;5052625;28;20495;-74
2022/05/13 09:38:15;;;;;;;3.80;1.33;;;;;;;;;;5052597;28;20470;-75
2022/05/13 09:40:41;;;;;;;6.50;1.63;;;;;;;;;;5052531;28;20416;-75
2022/05/13 09:43:07;;;;;;;6.33;1.77;;;;;;;;;;5052174;28;20443;-75
2022/05/13 09:45:34;;;;;;;5.13;1.50;;;;;;;;;;5052487;28;20482;-74
2022/05/13 09:48:07;;;;;;;3.93;1.50;;;;;;;;;;5052601;28;20408;-77
2022/05/13 09:50:35;;;;;;;3.87;1.43;;;;;;;;;;5052344;28;20496;-77
2022/05/13 09:53:02;;;;;;;4.87;1.67;;;;;;;;;;5052242;28;20408;-77
2022/05/13 09:55:39;;;;;;;11.17;1.97;;;;;;;;;;5052558;28;20581;-76
2022/05/13 09:58:15;;;;;;;5.60;1.33;;;;;;;;;;5052688;28;20400;-76
2022/05/13 10:00:43;;;;;;;6.27;2.07;;;;;;;;;;5052439;28;20432;-76
2022/05/13 10:03:26;;;;;;;7.17;1.37;;;;;;;;;;5052208;28;20439;-77
2022/05/13 10:06:17;;;;;;;2.10;1.10;;;;;;;;;;5052489;28;20823;-76
2022/05/13 10:14:40;;;;;;;4.00;1.10;;;;;;;;;;5056225;28;20435;-76
2022/05/13 10:17:10;;;;;;;3.93;1.40;;;;;;;;;;5056409;28;20387;-77
2022/05/13 10:19:38;;;;;;;2.57;1.00;;;;;;;;;;5056491;28;20755;-76
2022/05/13 10:22:04;;;;;;;5.23;1.17;;;;;;;;;;5056094;28;20452;-76
2022/05/13 10:24:47;;;;;;;1.73;1.07;;;;;;;;;;5055741;28;20477;-76
2022/05/13 10:27:22;;;;;;;4.77;1.00;;;;;;;;;;5055989;28;20424;-76
2022/05/13 10:29:50;;;;;;;5.03;1.17;;;;;;;;;;5055911;28;20541;-77
2022/05/13 10:32:24;;;;;;;2.83;1.13;;;;;;;;;;5055834;28;20436;-77
2022/05/13 10:34:53;;;;;;;2.70;1.20;;;;;;;;;;5055488;28;20449;-76
2022/05/13 10:37:32;;;;;;;1.63;1.00;;;;;;;;;;5055736;28;20399;-76
2022/05/13 10:40:01;;;;;;;6.50;1.93;;;;;;;;;;5055666;28;20412;-77
2022/05/13 10:42:31;;;;;;;4.90;1.20;;;;;;;;;;5055644;28;20880;-77
2022/05/13 10:45:07;;;;;;;2.77;1.00;;;;;;;;;;5054904;28;20432;-76
2022/05/13 10:47:44;;;;;;;6.67;1.57;;;;;;;;;;5055564;28;20432;-76
2022/05/13 10:50:17;;;;;;;4.10;1.70;;;;;;;;;;5055415;28;20474;-77
2022/05/13 10:53:05;;;;;;;1.43;0.97;;;;;;;;;;5055567;28;20420;-76
2022/05/13 10:55:42;;;;;;;2.93;0.90;;;;;;;;;;5055346;28;20403;-76
2022/05/13 10:58:14;;;;;;;2.50;1.30;;;;;;;;;;5055357;28;20458;-76
2022/05/13 11:00:59;;;;;;;1.97;0.80;;;;;;;;;;5055406;28;20432;-76
2022/05/13 11:03:38;;;;;;;4.37;2.27;;;;;;;;;;5055096;28;20432;-76
2022/05/13 11:06:07;;;;;;;3.17;1.10;;;;;;;;;;5054227;28;20462;-76
2022/05/13 11:08:39;;;;;;;4.50;1.10;;;;;;;;;;5055511;28;20416;-76
2022/05/13 11:11:22;;;;;;;2.20;0.90;;;;;;;;;;5055172;28;20417;-76
2022/05/13 11:13:54;;;;;;;2.87;1.30;;;;;;;;;;5054785;28;20432;-77
2022/05/13 11:16:28;;;;;;;2.27;0.90;;;;;;;;;;5054979;28;20417;-77
2022/05/13 11:18:58;;;;;;;3.23;1.10;;;;;;;;;;5054220;28;20403;-76
2022/05/13 11:21:30;;;;;;;3.30;1.40;;;;;;;;;;5054974;28;20866;-77
2022/05/13 11:27:15;;;;;;;2.53;1.10;;;;;;;;;;5055146;28;20392;-76
2022/05/13 11:29:47;;;;;;;5.23;2.50;;;;;;;;;;5054818;28;20424;-76
2022/05/13 11:32:30;;;;;;;5.50;1.40;;;;;;;;;;5055011;28;20447;-75
2022/05/13 11:35:07;;;;;;;2.87;1.30;;;;;;;;;;5054439;28;20436;-76
2022/05/13 11:37:36;;;;;;;3.40;1.20;;;;;;;;;;5054638;28;20386;-76
2022/05/13 11:40:21;;;;;;;4.27;1.30;;;;;;;;;;5054706;28;20400;-75
2022/05/13 11:45:47;;;;;;;7.17;1.37;;;;;;;;;;5054442;28;20412;-76
2022/05/13 11:48:29;;;;;;;5.53;1.10;;;;;;;;;;5054432;28;20404;-76
2022/05/13 11:51:10;;;;;;;3.63;0.93;;;;;;;;;;5054400;28;20423;-76
2022/05/13 11:54:00;;;;;;;1.80;1.40;;;;;;;;;;5054071;28;20519;-77
2022/05/13 11:56:26;;;;;;;2.37;1.43;;;;;;;;;;5043931;28;20424;-76
2022/05/13 11:59:04;;;;;;;2.00;1.23;;;;;;;;;;5054498;28;20404;-75
2022/05/13 12:01:36;;;;;;;5.17;1.40;;;;;;;;;;5054197;28;20460;-75
2022/05/13 12:04:14;;;;;;;3.40;1.23;;;;;;;;;;5053910;28;20420;-75
2022/05/13 12:06:49;;;;;;;4.47;1.50;;;;;;;;;;5053042;28;20387;-78
2022/05/13 12:09:34;;;;;;;2.90;1.40;;;;;;;;;;5054069;28;20876;-75
2022/05/13 12:12:12;;;;;;;3.13;1.00;;;;;;;;;;5054286;28;20408;-74
2022/05/13 12:14:39;;;;;;;8.17;1.27;;;;;;;;;;5053535;28;20794;-75
2022/05/13 12:17:11;;;;;;;2.40;1.00;;;;;;;;;;5054020;28;20905;-74
2022/05/13 12:19:52;;;;;;;1.60;1.00;;;;;;;;;;5053953;28;20470;-76
2022/05/13 12:22:30;;;;;;;1.70;1.00;;;;;;;;;;5053932;28;20448;-77
2022/05/13 12:25:04;;;;;;;2.07;1.43;;;;;;;;;;5053285;28;20461;-76
2022/05/13 12:27:30;;;;;;;2.60;1.10;;;;;;;;;;5052610;28;20412;-75
2022/05/13 12:29:59;;;;;;;3.73;1.00;;;;;;;;;;5065546;28;20436;-75
2022/05/13 12:32:36;;;;;;;3.70;1.30;;;;;;;;;;5053473;28;20473;-75
2022/05/13 12:37:56;;;;;;;3.87;1.07;;;;;;;;;;5053726;28;20399;-75
2022/05/13 12:40:22;;;;;;;3.23;1.17;;;;;;;;;;5053592;28;20759;-75
2022/05/13 12:42:48;;;;;;;1.97;0.83;;;;;;;;;;5068410;28;20468;-75
2022/05/13 12:45:22;;;;;;;4.90;1.00;;;;;;;;;;5053136;28;20440;-75
2022/05/13 12:47:59;;;;;;;4.93;1.40;;;;;;;;;;5053205;28;20412;-75
2022/05/13 12:50:39;;;;;;;3.20;1.60;;;;;;;;;;5053150;28;20911;-76
2022/05/13 12:53:23;;;;;;;4.23;1.07;;;;;;;;;;5053105;28;20475;-74
2022/05/13 12:55:50;;;;;;;2.50;0.90;;;;;;;;;;5053002;28;20408;-75
2022/05/13 12:58:18;;;;;;;1.30;1.10;;;;;;;;;;5053149;28;20432;-75
2022/05/13 13:00:48;;;;;;;4.20;1.30;;;;;;;;;;5053151;28;20415;-75
2022/05/13 13:03:15;;;;;;;2.60;0.90;;;;;;;;;;5052641;28;20456;-75
2022/05/13 13:05:42;;;;;;;2.00;1.00;;;;;;;;;;5053011;28;20432;-74
2022/05/13 13:08:19;;;;;;;3.93;1.17;;;;;;;;;;5052891;28;20390;-74
2022/05/13 13:10:52;;;;;;;2.60;1.00;;;;;;;;;;5053321;28;20469;-74
2022/05/13 13:13:34;;;;;;;3.37;1.60;;;;;;;;;;5052517;28;20409;-75
2022/05/13 13:16:01;;;;;;;4.13;2.60;;;;;;;;;;5052962;28;20408;-75
2022/05/13 13:18:32;;;;;;;4.50;1.20;;;;;;;;;;5053040;28;20416;-75
2022/05/13 13:20:59;;;;;;;7.07;1.10;;;;;;;;;;5068295;28;20515;-76
2022/05/13 13:23:28;;;;;;;4.20;1.37;;;;;;;;;;5052547;28;20425;-76
2022/05/13 13:25:57;;;;;;;4.57;1.30;;;;;;;;;;5052032;28;20420;-76
2022/05/13 13:28:25;;;;;;;1.70;1.00;;;;;;;;;;5052150;28;20914;-76
2022/05/13 13:30:57;;;;;;;4.33;1.50;;;;;;;;;;5049887;28;20419;-75
2022/05/13 13:33:27;;;;;;;4.67;1.50;;;;;;;;;;5051871;28;20420;-76
2022/05/13 13:35:53;;;;;;;4.20;1.40;;;;;;;;;;5049801;28;20412;-76
2022/05/13 13:38:20;;;;;;;5.43;1.30;;;;;;;;;;5052038;28;20419;-75
2022/05/13 13:40:49;;;;;;;2.90;1.00;;;;;;;;;;5052259;28;20481;-75
2022/05/13 13:43:21;;;;;;;4.70;1.23;;;;;;;;;;5056141;28;20460;-75
2022/05/13 13:45:52;;;;;;;1.83;1.10;;;;;;;;;;5056777;28;20398;-76
2022/05/13 13:48:35;;;;;;;9.30;1.47;;;;;;;;;;5056640;28;20462;-77
2022/05/13 13:51:01;;;;;;;4.30;1.60;;;;;;;;;;5056880;28;20928;-76
2022/05/13 13:53:32;;;;;;;2.23;1.00;;;;;;;;;;5054990;28;20413;-76
2022/05/13 13:56:18;;;;;;;3.17;1.03;;;;;;;;;;5056738;28;20507;-76
2022/05/13 13:58:47;;;;;;;4.77;1.10;;;;;;;;;;5056241;28;20416;-76
2022/05/13 14:01:18;;;;;;;4.57;1.40;;;;;;;;;;5056423;28;20754;-76
2022/05/13 14:03:45;;;;;;;1.77;1.10;;;;;;;;;;5056082;28;20489;-76
2022/05/13 14:06:16;;;;;;;7.13;1.70;;;;;;;;;;5055698;28;20462;-76
2022/05/13 14:08:44;;;;;;;3.60;1.17;;;;;;;;;;5056148;28;20409;-76
2022/05/13 14:11:13;;;;;;;4.83;1.37;;;;;;;;;;5056312;28;20428;-74
2022/05/13 14:13:41;;;;;;;4.60;1.60;;;;;;;;;;5055980;28;20830;-75
2022/05/13 14:16:11;;;;;;;2.90;1.57;;;;;;;;;;5056522;28;20494;-74
2022/05/13 14:18:38;;;;;;;4.43;1.20;;;;;;;;;;5056188;28;20518;-74
2022/05/13 14:21:23;;;;;;;5.30;1.50;;;;;;;;;;5056143;28;20419;-74
2022/05/13 14:24:03;;;;;;;2.30;1.03;;;;;;;;;;5055808;28;20420;-75
2022/05/13 14:26:29;;;;;;;1.83;1.33;;;;;;;;;;5056178;28;20400;-75
2022/05/13 14:28:56;;;;;;;3.40;1.40;;;;;;;;;;5055859;28;20436;-76
2022/05/13 14:31:45;;;;;;;2.53;1.37;;;;;;;;;;5055320;28;20419;-76
2022/05/13 14:34:16;;;;;;;3.90;1.60;;;;;;;;;;5034254;28;20520;-76
2022/05/13 14:36:43;;;;;;;3.83;1.70;;;;;;;;;;5018281;28;20505;-77
2022/05/13 14:42:17;;;;;;;3.20;1.40;;;;;;;;;;5035987;28;20480;-77
2022/05/13 14:44:50;;;;;;;2.47;1.53;;;;;;;;;;5035412;28;20428;-77
2022/05/13 14:47:19;;;;;;;5.57;1.50;;;;;;;;;;5035626;28;20546;-76
2022/05/13 14:49:45;;;;;;;4.00;1.80;;;;;;;;;;5035546;28;20487;-76
2022/05/13 14:52:19;;;;;;;5.20;1.83;;;;;;;;;;5035471;28;20417;-77
2022/05/13 14:54:45;;;;;;;3.23;1.70;;;;;;;;;;5043682;28;20542;-77
2022/05/13 14:57:11;;;;;;;3.73;1.77;;;;;;;;;;5055213;28;20428;-77
2022/05/13 14:59:58;;;;;;;4.33;1.60;;;;;;;;;;5055248;28;20416;-77
2022/05/13 15:02:37;;;;;;;5.53;1.80;;;;;;;;;;5044757;28;20478;-75
2022/05/13 15:05:22;;;;;;;4.13;1.40;;;;;;;;;;5055007;28;20545;-76
2022/05/13 15:07:50;;;;;;;2.17;1.80;;;;;;;;;;5055510;28;20765;-76
2022/05/13 15:10:21;;;;;;;5.00;1.83;;;;;;;;;;5055174;28;20397;-76
2022/05/13 15:12:47;;;;;;;2.67;1.63;;;;;;;;;;5055155;28;20408;-76
2022/05/13 15:15:15;;;;;;;3.23;1.60;;;;;;;;;;5054820;28;20428;-76
2022/05/13 15:17:52;;;;;;;5.30;2.13;;;;;;;;;;5055206;28;20493;-76
2022/05/13 15:20:20;;;;;;;2.53;1.80;;;;;;;;;;5055226;28;20405;-77
2022/05/13 15:22:46;;;;;;;5.87;1.80;;;;;;;;;;5054948;28;20841;-77
2022/05/13 15:25:12;;;;;;;6.37;3.00;;;;;;;;;;5054710;28;20507;-77
2022/05/13 15:27:38;;;;;;;6.07;2.80;;;;;;;;;;5037165;28;20391;-78
2022/05/13 15:30:06;;;;;;;3.13;1.63;;;;;;;;;;5055033;28;20434;-79